createdAt,value
2019-03-01T00:01:17.044Z,71.57
2019-03-01T00:03:44.382Z,71.61
2019-03-01T00:06:33.498Z,71.28
2019-03-01T00:09:38.267Z,71.15
2019-03-01T00:12:52.658Z,71.10
2019-03-01T00:15:59.833Z,71.00
2019-03-01T00:19:20.620Z,70.94
2019-03-01T00:22:47.352Z,70.89
2019-03-01T00:25:40.626Z,70.95
2019-03-01T00:28:31.405Z,71.20
2019-03-01T00:31:29.934Z,71.38
2019-03-01T00:34:30.526Z,71.63
2019-03-01T00:37:17.124Z,71.61
2019-03-01T00:39:53.271Z,71.71
2019-03-01T00:42:47.062Z,71.65
2019-03-01T00:45:13.834Z,71.80
2019-03-01T00:47:40.370Z,71.64
2019-03-01T00:50:06.964Z,71.66
2019-03-01T00:52:33.868Z,71.46
2019-03-01T00:55:00.355Z,71.41
2019-03-01T00:57:26.812Z,71.49
2019-03-01T00:59:53.871Z,71.36
2019-03-01T01:02:20.392Z,71.39
2019-03-01T01:04:46.966Z,71.33
2019-03-01T01:07:13.463Z,71.45
2019-03-01T01:09:39.960Z,71.62
2019-03-01T01:12:06.462Z,71.66
2019-03-01T01:14:33.065Z,71.89
2019-03-01T01:16:59.795Z,72.15
2019-03-01T01:19:26.320Z,72.89
2019-03-01T01:21:54.359Z,73.50
2019-03-01T01:24:21.000Z,74.88
2019-03-01T01:26:47.464Z,77.30
2019-03-01T01:29:14.882Z,80.83
2019-03-01T01:31:41.333Z,84.39
2019-03-01T01:34:08.192Z,86.59
2019-03-01T01:36:34.915Z,88.21
2019-03-01T01:39:03.721Z,88.79
2019-03-01T01:41:30.242Z,89.21
2019-03-01T01:43:56.748Z,89.66
2019-03-01T01:46:23.607Z,89.97
2019-03-01T01:48:50.127Z,90.28
2019-03-01T01:51:16.937Z,90.81
2019-03-01T01:53:43.790Z,91.67
2019-03-01T01:56:10.348Z,92.47
2019-03-01T01:58:36.831Z,92.99
2019-03-01T02:01:03.635Z,93.14
2019-03-01T02:03:30.099Z,93.61
2019-03-01T02:05:56.730Z,94.23
2019-03-01T02:08:23.164Z,94.55
2019-03-01T02:10:50.155Z,95.07
2019-03-01T02:13:16.603Z,95.38
2019-03-01T02:15:43.060Z,95.67
2019-03-01T02:18:09.540Z,95.94
2019-03-01T02:20:37.079Z,95.95
2019-03-01T02:23:03.860Z,95.99
2019-03-01T02:25:30.311Z,96.08
2019-03-01T02:27:56.766Z,95.88
2019-03-01T02:30:24.419Z,95.96
2019-03-01T02:32:51.215Z,96.01
2019-03-01T02:35:19.810Z,96.17
2019-03-01T02:37:46.588Z,96.10
2019-03-01T02:40:13.550Z,95.95
2019-03-01T02:42:40.028Z,96.00
2019-03-01T02:45:08.538Z,96.29
2019-03-01T02:47:35.031Z,96.51
2019-03-01T02:50:08.296Z,96.59
2019-03-01T02:52:34.797Z,96.59
2019-03-01T02:55:01.409Z,96.59
2019-03-01T02:57:27.950Z,96.52
2019-03-01T02:59:54.416Z,96.48
2019-03-01T03:02:20.919Z,96.64
2019-03-01T03:04:47.405Z,96.68
2019-03-01T03:07:25.252Z,96.45
2019-03-01T03:09:51.972Z,95.88
2019-03-01T03:12:18.785Z,95.61
2019-03-01T03:14:45.278Z,95.36
2019-03-01T03:17:12.032Z,94.78
2019-03-01T03:19:38.521Z,94.61
2019-03-01T03:22:04.960Z,94.58
2019-03-01T03:24:31.452Z,94.46
2019-03-01T03:26:57.936Z,94.50
2019-03-01T03:29:24.406Z,94.56
2019-03-01T03:31:50.870Z,94.74
2019-03-01T03:34:17.601Z,94.57
2019-03-01T03:36:44.139Z,94.43
2019-03-01T03:39:11.031Z,94.00
2019-03-01T03:41:37.917Z,94.10
2019-03-01T03:44:04.662Z,94.07
2019-03-01T03:46:31.138Z,94.02
2019-03-01T03:48:57.627Z,93.81
2019-03-01T03:51:24.498Z,93.73
2019-03-01T03:53:51.182Z,93.75
2019-03-01T03:56:17.763Z,93.72
2019-03-01T03:58:44.481Z,93.49
2019-03-01T04:01:33.021Z,93.42
2019-03-01T04:03:59.814Z,93.23
2019-03-01T04:06:28.724Z,93.19
2019-03-01T04:08:55.762Z,93.25
2019-03-01T04:11:22.427Z,93.10
2019-03-01T04:13:48.913Z,93.45
2019-03-01T04:16:15.380Z,93.12
2019-03-01T04:18:41.883Z,93.20
2019-03-01T04:21:09.443Z,93.04
2019-03-01T04:23:35.908Z,92.65
2019-03-01T04:26:02.648Z,92.48
2019-03-01T04:28:30.611Z,92.73
2019-03-01T04:30:57.128Z,92.30
2019-03-01T04:33:23.608Z,92.34
2019-03-01T04:35:50.105Z,92.70
2019-03-01T04:38:16.581Z,92.95
2019-03-01T04:40:43.019Z,93.03
2019-03-01T04:43:09.542Z,93.08
2019-03-01T04:45:36.289Z,93.17
2019-03-01T04:48:02.787Z,93.34
2019-03-01T04:50:29.295Z,93.45
2019-03-01T04:52:56.091Z,93.61
2019-03-01T04:55:23.839Z,93.85
2019-03-01T04:57:50.374Z,94.04
2019-03-01T05:00:18.733Z,94.44
2019-03-01T05:02:46.284Z,95.07
2019-03-01T05:05:13.633Z,95.27
2019-03-01T05:07:40.099Z,95.43
2019-03-01T05:10:08.049Z,95.63
2019-03-01T05:12:34.489Z,95.83
2019-03-01T05:15:01.406Z,95.85
2019-03-01T05:17:27.885Z,95.91
2019-03-01T05:19:58.815Z,95.98
2019-03-01T05:22:25.298Z,96.02
2019-03-01T05:24:52.015Z,95.78
2019-03-01T05:27:18.620Z,95.56
2019-03-01T05:29:45.375Z,95.42
2019-03-01T05:32:11.878Z,95.03
2019-03-01T05:34:38.550Z,94.33
2019-03-01T05:37:05.148Z,93.93
2019-03-01T05:39:31.732Z,93.64
2019-03-01T05:41:58.192Z,93.75
2019-03-01T05:44:24.970Z,94.01
2019-03-01T05:46:51.747Z,94.17
2019-03-01T05:49:18.320Z,94.04
2019-03-01T05:51:44.711Z,93.72
2019-03-01T05:54:11.281Z,93.60
2019-03-01T05:56:39.862Z,93.52
2019-03-01T05:59:11.969Z,93.02
2019-03-01T06:01:53.537Z,93.22
2019-03-01T06:04:24.194Z,93.15
2019-03-01T06:07:15.053Z,93.11
2019-03-01T06:09:53.719Z,93.09
2019-03-01T06:12:47.683Z,92.80
2019-03-01T06:15:29.999Z,92.96
2019-03-01T06:18:28.707Z,93.16
2019-03-01T06:21:45.479Z,93.28
2019-03-01T06:24:42.182Z,93.60
2019-03-01T06:27:34.854Z,93.47
2019-03-01T06:30:40.329Z,93.20
2019-03-01T06:34:06.120Z,93.01
2019-03-01T06:37:16.559Z,92.80
2019-03-01T06:40:19.112Z,92.19
2019-03-01T06:42:56.664Z,91.62
2019-03-01T06:46:00.798Z,91.41
2019-03-01T06:48:45.524Z,91.51
2019-03-01T06:51:28.392Z,91.41
2019-03-01T06:53:48.541Z,91.19
2019-03-01T06:56:15.484Z,90.93
2019-03-01T06:58:49.755Z,90.98
2019-03-01T07:01:30.271Z,90.94
2019-03-01T07:04:03.918Z,90.84
2019-03-01T07:06:30.811Z,90.23
2019-03-01T07:08:57.442Z,90.23
2019-03-01T07:11:24.033Z,90.18
2019-03-01T07:13:50.789Z,89.84
2019-03-01T07:16:17.271Z,89.56
2019-03-01T07:18:45.937Z,89.37
2019-03-01T07:21:12.498Z,89.49
2019-03-01T07:23:39.541Z,89.57
2019-03-01T07:26:06.501Z,89.42
2019-03-01T07:28:33.623Z,89.58
2019-03-01T07:31:00.233Z,89.48
2019-03-01T07:33:27.273Z,89.47
2019-03-01T07:35:54.258Z,89.64
2019-03-01T07:38:21.207Z,89.46
2019-03-01T07:40:48.214Z,89.44
2019-03-01T07:43:16.671Z,89.59
2019-03-01T07:45:43.325Z,89.45
2019-03-01T07:48:09.910Z,89.37
2019-03-01T07:50:36.546Z,89.43
2019-03-01T07:53:03.738Z,89.31
2019-03-01T07:55:31.434Z,89.23
2019-03-01T07:57:58.421Z,89.25
2019-03-01T08:00:25.177Z,89.23
2019-03-01T08:02:51.969Z,89.30
2019-03-01T08:05:18.856Z,89.02
2019-03-01T08:07:55.634Z,88.85
2019-03-01T08:10:20.885Z,88.43
2019-03-01T08:12:43.475Z,87.98
2019-03-01T08:15:11.822Z,87.32
2019-03-01T08:17:38.431Z,87.20
2019-03-01T08:20:08.386Z,86.75
2019-03-01T08:22:47.504Z,86.54
2019-03-01T08:25:05.441Z,86.35
2019-03-01T08:27:32.342Z,86.17
2019-03-01T08:29:59.257Z,85.54
2019-03-01T08:32:27.451Z,84.16
2019-03-01T08:34:54.821Z,81.81
2019-03-01T08:37:21.484Z,79.99
2019-03-01T08:39:49.694Z,79.07
2019-03-01T08:42:16.335Z,78.75
2019-03-01T08:44:42.868Z,79.37
2019-03-01T08:47:09.578Z,78.35
2019-03-01T08:49:36.166Z,76.48
2019-03-01T08:52:24.028Z,74.46
2019-03-01T08:54:51.044Z,71.54
2019-03-01T08:57:18.528Z,70.87
2019-03-01T08:59:45.870Z,69.73
2019-03-01T09:02:12.814Z,68.01
2019-03-01T09:04:39.371Z,68.39
2019-03-01T09:07:05.930Z,69.87
2019-03-01T09:09:32.812Z,69.85
2019-03-01T09:11:59.405Z,70.64
2019-03-01T09:14:27.495Z,71.32
2019-03-01T09:17:02.958Z,71.81
2019-03-01T09:19:42.218Z,72.53
2019-03-01T09:22:08.859Z,74.75
2019-03-01T09:24:35.502Z,73.55
2019-03-01T09:27:02.718Z,71.54
2019-03-01T09:29:29.272Z,70.23
2019-03-01T09:31:57.873Z,70.65
2019-03-01T09:34:24.814Z,70.89
2019-03-01T09:36:55.611Z,71.50
2019-03-01T09:39:22.488Z,73.05
2019-03-01T09:41:49.531Z,74.04
2019-03-01T09:44:16.732Z,74.31
2019-03-01T09:46:44.173Z,74.51
2019-03-01T09:49:10.977Z,74.75
2019-03-01T09:51:37.604Z,74.82
2019-03-01T09:54:06.411Z,74.47
2019-03-01T09:56:36.755Z,74.92
2019-03-01T09:59:09.504Z,75.06
2019-03-01T10:01:36.665Z,74.99
2019-03-01T10:04:04.583Z,74.66
2019-03-01T10:06:38.430Z,74.49
2019-03-01T10:09:13.292Z,75.22
2019-03-01T10:11:44.191Z,75.69
2019-03-01T10:14:15.243Z,75.76
2019-03-01T10:16:42.487Z,75.38
2019-03-01T10:19:11.789Z,75.83
2019-03-01T10:21:42.247Z,76.01
2019-03-01T10:24:13.994Z,75.93
2019-03-01T10:26:51.386Z,75.86
2019-03-01T10:29:24.420Z,76.15
2019-03-01T10:31:52.176Z,76.02
2019-03-01T10:34:22.723Z,75.75
2019-03-01T10:36:51.282Z,76.02
2019-03-01T10:39:18.750Z,75.77
2019-03-01T10:41:45.595Z,75.57
2019-03-01T10:44:12.494Z,75.65
2019-03-01T10:46:40.167Z,75.92
2019-03-01T10:49:07.006Z,76.54
2019-03-01T10:51:34.150Z,77.02
2019-03-01T10:54:01.036Z,77.04
2019-03-01T10:56:27.778Z,77.29
2019-03-01T10:59:10.654Z,77.13
2019-03-01T11:01:38.782Z,76.45
2019-03-01T11:04:09.682Z,75.31
2019-03-01T11:06:36.582Z,74.64
2019-03-01T11:09:06.132Z,74.33
2019-03-01T11:11:33.461Z,74.11
2019-03-01T11:14:02.333Z,73.41
2019-03-01T11:16:30.799Z,73.44
2019-03-01T11:18:58.279Z,72.25
2019-03-01T11:21:25.111Z,71.85
2019-03-01T11:23:54.809Z,71.18
2019-03-01T11:26:25.245Z,70.59
2019-03-01T11:28:52.878Z,70.79
2019-03-01T11:31:19.890Z,70.19
2019-03-01T11:33:47.041Z,70.11
2019-03-01T11:36:13.911Z,70.60
2019-03-01T11:38:40.528Z,69.91
2019-03-01T11:41:07.332Z,70.50
2019-03-01T11:43:34.270Z,70.53
2019-03-01T11:46:00.899Z,71.20
2019-03-01T11:48:30.303Z,71.33
2019-03-01T11:50:57.834Z,70.69
2019-03-01T11:53:24.547Z,70.96
2019-03-01T11:55:51.342Z,70.50
2019-03-01T11:58:18.939Z,70.46
2019-03-01T12:00:52.001Z,70.43
2019-03-01T12:03:15.468Z,70.36
2019-03-01T12:05:42.101Z,70.88
2019-03-01T12:08:08.803Z,70.79
2019-03-01T12:10:35.469Z,70.81
2019-03-01T12:13:02.120Z,70.97
2019-03-01T12:15:28.621Z,71.11
2019-03-01T12:17:55.412Z,71.15
2019-03-01T12:20:22.188Z,70.97
2019-03-01T12:22:49.025Z,70.55
2019-03-01T12:25:18.753Z,70.43
2019-03-01T12:27:45.705Z,70.42
2019-03-01T12:30:14.358Z,70.58
2019-03-01T12:32:41.099Z,70.11
2019-03-01T12:35:14.638Z,69.73
2019-03-01T12:37:41.593Z,70.39
2019-03-01T12:40:19.673Z,70.35
2019-03-01T12:42:48.063Z,70.65
2019-03-01T12:45:15.773Z,70.20
2019-03-01T12:47:42.711Z,69.95
2019-03-01T12:50:11.484Z,70.41
2019-03-01T12:52:40.297Z,71.41
2019-03-01T12:55:12.319Z,72.14
2019-03-01T12:57:38.980Z,74.10
2019-03-01T13:00:12.724Z,75.44
2019-03-01T13:02:39.392Z,76.76
2019-03-01T13:05:06.743Z,77.63
2019-03-01T13:07:35.541Z,78.25
2019-03-01T13:10:03.381Z,79.04
2019-03-01T13:12:30.705Z,79.55
2019-03-01T13:14:57.303Z,79.34
2019-03-01T13:17:23.809Z,78.61
2019-03-01T13:19:50.423Z,79.28
2019-03-01T13:22:16.971Z,79.82
2019-03-01T13:24:43.716Z,81.59
2019-03-01T13:27:10.938Z,82.38
2019-03-01T13:29:37.433Z,83.37
2019-03-01T13:32:04.207Z,82.53
2019-03-01T13:34:30.738Z,82.14
2019-03-01T13:36:57.587Z,83.16
2019-03-01T13:39:24.056Z,84.09
2019-03-01T13:41:50.683Z,84.90
2019-03-01T13:44:17.481Z,85.09
2019-03-01T13:46:44.001Z,85.02
2019-03-01T13:49:10.575Z,85.11
2019-03-01T13:51:39.353Z,84.51
2019-03-01T13:54:17.219Z,84.66
2019-03-01T13:56:43.884Z,84.79
2019-03-01T13:59:10.888Z,85.70
2019-03-01T14:01:38.048Z,86.07
2019-03-01T14:04:04.695Z,85.78
2019-03-01T14:06:31.302Z,84.12
2019-03-01T14:08:58.030Z,82.86
2019-03-01T14:11:24.755Z,83.03
2019-03-01T14:13:52.903Z,83.91
2019-03-01T14:16:20.431Z,84.21
2019-03-01T14:18:48.046Z,83.65
2019-03-01T14:21:14.613Z,83.45
2019-03-01T14:23:41.396Z,81.50
2019-03-01T14:26:08.041Z,80.94
2019-03-01T14:28:34.622Z,81.81
2019-03-01T14:31:04.038Z,80.85
2019-03-01T14:33:33.121Z,80.83
2019-03-01T14:36:02.955Z,81.11
2019-03-01T14:38:29.899Z,81.52
2019-03-01T14:40:59.430Z,80.30
2019-03-01T14:43:25.530Z,79.60
2019-03-01T14:45:53.380Z,79.31
2019-03-01T14:48:19.892Z,78.47
2019-03-01T14:50:48.938Z,78.53
2019-03-01T14:53:16.113Z,79.79
2019-03-01T14:55:45.632Z,80.07
2019-03-01T14:58:26.344Z,80.26
2019-03-01T15:01:06.550Z,81.93
2019-03-01T15:03:34.575Z,81.46
2019-03-01T15:06:01.260Z,82.47
2019-03-01T15:08:28.314Z,84.07
2019-03-01T15:10:55.850Z,85.14
2019-03-01T15:13:22.775Z,85.45
2019-03-01T15:15:49.532Z,85.05
2019-03-01T15:18:16.179Z,84.21
2019-03-01T15:20:43.226Z,83.61
2019-03-01T15:23:09.802Z,83.58
2019-03-01T15:25:36.283Z,83.41
2019-03-01T15:28:04.761Z,84.52
2019-03-01T15:30:31.362Z,85.52
2019-03-01T15:33:08.523Z,85.79
2019-03-01T15:35:36.313Z,85.53
2019-03-01T15:38:04.968Z,85.36
2019-03-01T15:40:32.613Z,85.56
2019-03-01T15:42:59.504Z,85.86
2019-03-01T15:45:26.208Z,85.93
2019-03-01T15:47:52.769Z,86.29
2019-03-01T15:50:26.986Z,86.29
2019-03-01T15:52:52.316Z,85.91
2019-03-01T15:55:18.901Z,86.22
2019-03-01T15:57:45.673Z,86.01
2019-03-01T16:00:12.696Z,86.16
2019-03-01T16:02:40.099Z,86.20
2019-03-01T16:05:07.487Z,85.91
2019-03-01T16:07:34.201Z,85.95
2019-03-01T16:10:01.953Z,86.10
2019-03-01T16:12:31.931Z,86.16
2019-03-01T16:15:00.437Z,86.13
2019-03-01T16:17:25.811Z,86.00
2019-03-01T16:19:53.470Z,85.97
2019-03-01T16:22:20.170Z,86.34
2019-03-01T16:24:46.670Z,86.17
2019-03-01T16:27:15.302Z,86.09
2019-03-01T16:29:43.155Z,86.31
2019-03-01T16:32:10.269Z,86.56
2019-03-01T16:34:37.771Z,86.86
2019-03-01T16:37:05.347Z,86.77
2019-03-01T16:39:31.999Z,86.49
2019-03-01T16:41:58.512Z,86.85
2019-03-01T16:44:26.583Z,86.81
2019-03-01T16:46:53.346Z,86.81
2019-03-01T16:49:20.138Z,86.65
2019-03-01T16:51:50.703Z,86.77
2019-03-01T16:54:17.350Z,87.32
2019-03-01T16:56:44.937Z,87.05
2019-03-01T16:59:11.677Z,87.54
2019-03-01T17:01:40.740Z,88.08
2019-03-01T17:04:07.864Z,88.37
2019-03-01T17:06:34.874Z,88.38
2019-03-01T17:09:04.225Z,88.72
2019-03-01T17:11:30.923Z,88.36
2019-03-01T17:13:59.583Z,87.92
2019-03-01T17:16:26.475Z,87.51
2019-03-01T17:18:52.994Z,87.23
2019-03-01T17:21:19.436Z,86.81
2019-03-01T17:23:49.362Z,86.65
2019-03-01T17:26:16.093Z,84.52
2019-03-01T17:28:42.575Z,83.98
2019-03-01T17:31:09.028Z,83.26
2019-03-01T17:33:38.794Z,81.90
2019-03-01T17:36:18.272Z,82.03
2019-03-01T17:38:45.914Z,82.35
2019-03-01T17:41:10.914Z,82.59
2019-03-01T17:43:37.549Z,83.07
2019-03-01T17:46:05.844Z,83.13
2019-03-01T17:48:32.512Z,83.42
2019-03-01T17:50:59.033Z,83.39
2019-03-01T17:53:26.650Z,83.66
2019-03-01T17:55:53.575Z,83.64
2019-03-01T17:58:20.122Z,84.32
2019-03-01T18:00:47.720Z,84.46
2019-03-01T18:03:16.404Z,84.77
2019-03-01T18:05:42.915Z,85.20
2019-03-01T18:08:09.386Z,85.52
2019-03-01T18:10:35.894Z,85.61
2019-03-01T18:13:02.737Z,85.93
2019-03-01T18:15:29.327Z,86.41
2019-03-01T18:17:56.535Z,86.67
2019-03-01T18:20:25.354Z,86.73
2019-03-01T18:22:51.839Z,87.10
2019-03-01T18:25:18.444Z,86.57
2019-03-01T18:27:45.282Z,86.40
2019-03-01T18:30:19.690Z,85.18
2019-03-01T18:32:47.442Z,85.17
2019-03-01T18:35:15.899Z,85.64
2019-03-01T18:37:46.211Z,85.82
2019-03-01T18:40:16.553Z,86.07
2019-03-01T18:42:42.683Z,85.64
2019-03-01T18:45:11.486Z,85.17
2019-03-01T18:47:38.420Z,85.29
2019-03-01T18:50:08.728Z,85.50
2019-03-01T18:52:36.362Z,85.24
2019-03-01T18:55:03.260Z,85.52
2019-03-01T18:57:29.798Z,86.23
2019-03-01T18:59:59.916Z,86.44
2019-03-01T19:02:27.641Z,86.31
2019-03-01T19:04:55.638Z,86.54
2019-03-01T19:07:24.346Z,86.74
2019-03-01T19:09:52.152Z,86.60
2019-03-01T19:12:19.531Z,86.68
2019-03-01T19:14:46.134Z,86.70
2019-03-01T19:17:13.295Z,86.91
2019-03-01T19:19:40.017Z,86.87
2019-03-01T19:22:07.521Z,87.11
2019-03-01T19:24:42.839Z,87.08
2019-03-01T19:27:03.418Z,87.11
2019-03-01T19:30:05.078Z,86.66
2019-03-01T19:32:33.147Z,87.09
2019-03-01T19:35:00.341Z,86.96
2019-03-01T19:37:26.935Z,86.96
2019-03-01T19:39:56.495Z,86.91
2019-03-01T19:42:29.625Z,87.05
2019-03-01T19:45:00.807Z,87.30
2019-03-01T19:47:28.658Z,87.49
2019-03-01T19:49:59.325Z,87.69
2019-03-01T19:52:26.467Z,88.28
2019-03-01T19:54:53.509Z,87.92
2019-03-01T19:57:20.456Z,87.33
2019-03-01T19:59:49.600Z,86.98
2019-03-01T20:02:27.798Z,86.42
2019-03-01T20:04:55.691Z,85.99
2019-03-01T20:07:22.772Z,86.15
2019-03-01T20:09:49.938Z,86.31
2019-03-01T20:12:18.463Z,86.42
2019-03-01T20:14:45.446Z,86.36
2019-03-01T20:17:12.455Z,86.26
2019-03-01T20:19:39.004Z,86.44
2019-03-01T20:22:06.887Z,86.69
2019-03-01T20:24:40.071Z,86.76
2019-03-01T20:27:05.464Z,87.30
2019-03-01T20:29:32.139Z,87.87
2019-03-01T20:31:58.669Z,88.67
2019-03-01T20:34:25.653Z,89.44
2019-03-01T20:36:54.908Z,90.23
2019-03-01T20:39:21.658Z,91.13
2019-03-01T20:41:48.494Z,91.75
2019-03-01T20:44:18.802Z,92.56
2019-03-01T20:46:55.622Z,93.04
2019-03-01T20:49:26.765Z,93.38
2019-03-01T20:51:55.094Z,94.23
2019-03-01T20:54:21.886Z,94.73
2019-03-01T20:56:51.630Z,95.49
2019-03-01T20:59:18.975Z,96.08
2019-03-01T21:01:46.904Z,96.44
2019-03-01T21:04:16.191Z,96.73
2019-03-01T21:06:43.025Z,97.19
2019-03-01T21:09:09.847Z,97.57
2019-03-01T21:11:37.038Z,98.02
2019-03-01T21:14:05.546Z,98.45
2019-03-01T21:16:32.700Z,98.65
2019-03-01T21:19:05.772Z,98.60
2019-03-01T21:21:31.297Z,98.95
2019-03-01T21:23:58.443Z,99.08
2019-03-01T21:26:25.059Z,99.17
2019-03-01T21:28:52.827Z,99.21
2019-03-01T21:31:19.579Z,99.25
2019-03-01T21:33:51.533Z,99.37
2019-03-01T21:36:18.166Z,99.44
2019-03-01T21:38:49.163Z,99.43
2019-03-01T21:41:14.088Z,99.11
2019-03-01T21:43:40.569Z,99.33
2019-03-01T21:46:08.591Z,99.59
2019-03-01T21:48:35.228Z,99.59
2019-03-01T21:51:02.020Z,99.53
2019-03-01T21:53:28.547Z,99.60
2019-03-01T21:55:55.056Z,99.53
2019-03-01T21:58:21.545Z,99.46
2019-03-01T22:00:48.497Z,99.43
2019-03-01T22:03:15.085Z,99.59
2019-03-01T22:05:41.791Z,99.74
2019-03-01T22:08:09.536Z,99.92
2019-03-01T22:10:38.939Z,100.00
2019-03-01T22:13:07.284Z,100.00
2019-03-01T22:15:39.092Z,99.57
2019-03-01T22:18:05.604Z,99.40
2019-03-01T22:20:32.369Z,98.99
2019-03-01T22:22:58.950Z,98.86
2019-03-01T22:25:25.465Z,98.97
2019-03-01T22:27:52.039Z,99.06
2019-03-01T22:30:22.989Z,99.17
2019-03-01T22:32:50.564Z,99.18
2019-03-01T22:35:17.411Z,98.50
2019-03-01T22:37:43.949Z,98.24
2019-03-01T22:40:10.678Z,97.73
2019-03-01T22:42:37.420Z,97.46
2019-03-01T22:45:04.343Z,96.86
2019-03-01T22:47:32.397Z,96.81
2019-03-01T22:49:59.264Z,96.13
2019-03-01T22:52:30.368Z,95.72
2019-03-01T22:54:57.738Z,94.96
2019-03-01T22:57:26.067Z,94.85
2019-03-01T22:59:52.623Z,94.92
2019-03-01T23:02:21.957Z,94.73
2019-03-01T23:04:48.418Z,93.90
2019-03-01T23:07:15.028Z,94.02
2019-03-01T23:09:42.594Z,93.91
2019-03-01T23:12:09.966Z,93.98
2019-03-01T23:14:36.445Z,93.81
2019-03-01T23:17:03.264Z,94.07
2019-03-01T23:19:29.739Z,94.38
2019-03-01T23:21:56.233Z,94.33
2019-03-01T23:24:22.673Z,94.69
2019-03-01T23:26:49.439Z,94.70
2019-03-01T23:29:18.784Z,94.45
2019-03-01T23:31:44.408Z,94.36
2019-03-01T23:34:10.991Z,93.57
2019-03-01T23:36:37.782Z,93.46
2019-03-01T23:39:05.488Z,93.45
2019-03-01T23:41:31.965Z,93.31
2019-03-01T23:43:58.708Z,93.06
2019-03-01T23:46:25.585Z,92.85
2019-03-01T23:48:54.745Z,92.49
2019-03-01T23:51:21.192Z,92.05
2019-03-01T23:53:47.657Z,92.00
2019-03-01T23:56:14.094Z,91.14
2019-03-01T23:58:40.858Z,91.53
